createdAt,value
2018-08-12T00:01:56.954Z,64.90
2018-08-12T00:04:25.534Z,65.10
2018-08-12T00:06:54.375Z,66.10
2018-08-12T00:09:22.955Z,66.30
2018-08-12T00:11:51.766Z,66.40
2018-08-12T00:14:20.354Z,67.00
2018-08-12T00:16:49.006Z,67.50
2018-08-12T00:19:17.573Z,67.20
2018-08-12T00:21:46.142Z,67.90
2018-08-12T00:24:14.681Z,67.40
2018-08-12T00:26:43.283Z,67.50
2018-08-12T00:29:11.920Z,67.10
2018-08-12T00:31:40.519Z,67.90
2018-08-12T00:34:09.621Z,67.10
2018-08-12T00:36:38.269Z,67.40
2018-08-12T00:39:09.779Z,67.30
2018-08-12T00:41:38.367Z,67.70
2018-08-12T00:44:07.435Z,67.70
2018-08-12T00:46:36.154Z,67.50
2018-08-12T00:49:04.847Z,67.50
2018-08-12T00:51:33.482Z,68.00
2018-08-12T00:54:02.047Z,67.50
2018-08-12T00:56:30.694Z,67.90
2018-08-12T00:58:59.224Z,68.50
2018-08-12T01:01:27.872Z,68.40
2018-08-12T01:03:56.508Z,69.10
2018-08-12T01:06:25.088Z,69.00
2018-08-12T01:08:53.710Z,69.00
2018-08-12T01:11:22.270Z,69.50
2018-08-12T01:13:50.886Z,69.50
2018-08-12T01:16:19.438Z,69.10
2018-08-12T01:18:48.123Z,69.00
2018-08-12T01:21:16.687Z,69.40
2018-08-12T01:23:45.286Z,69.70
2018-08-12T01:26:14.221Z,70.60
2018-08-12T01:28:42.777Z,71.20
2018-08-12T01:31:11.349Z,72.00
2018-08-12T01:33:39.947Z,72.30
2018-08-12T01:36:08.526Z,71.90
2018-08-12T01:38:37.127Z,72.70
2018-08-12T01:41:05.747Z,72.60
2018-08-12T01:43:34.365Z,73.60
2018-08-12T01:46:02.958Z,72.50
2018-08-12T01:48:31.614Z,72.90
2018-08-12T01:51:00.202Z,73.30
2018-08-12T01:53:28.845Z,73.10
2018-08-12T01:55:57.366Z,72.90
2018-08-12T01:58:25.979Z,72.70
2018-08-12T02:00:54.531Z,72.60
2018-08-12T02:03:23.095Z,73.00
2018-08-12T02:05:52.498Z,73.90
2018-08-12T02:08:21.074Z,74.60
2018-08-12T02:10:49.675Z,74.60
2018-08-12T02:13:18.237Z,74.80
2018-08-12T02:15:46.826Z,75.10
2018-08-12T02:18:15.358Z,75.20
2018-08-12T02:20:43.918Z,75.00
2018-08-12T02:23:12.478Z,75.30
2018-08-12T02:25:41.063Z,75.60
2018-08-12T02:28:09.662Z,76.10
2018-08-12T02:30:38.241Z,76.20
2018-08-12T02:33:06.823Z,76.30
2018-08-12T02:35:35.424Z,76.70
2018-08-12T02:38:04.022Z,77.00
2018-08-12T02:40:32.588Z,76.90
2018-08-12T02:43:01.179Z,77.60
2018-08-12T02:45:29.825Z,78.30
2018-08-12T02:47:58.342Z,78.60
2018-08-12T02:50:26.988Z,78.50
2018-08-12T02:52:55.571Z,78.50
2018-08-12T02:55:24.158Z,79.00
2018-08-12T02:57:52.775Z,79.00
2018-08-12T03:00:21.368Z,79.50
2018-08-12T03:02:50.019Z,79.90
2018-08-12T03:05:18.684Z,80.30
2018-08-12T03:07:47.351Z,80.30
2018-08-12T03:10:15.888Z,80.00
2018-08-12T03:12:44.454Z,80.40
2018-08-12T03:15:13.007Z,80.90
2018-08-12T03:17:41.554Z,81.10
2018-08-12T03:20:11.506Z,80.60
2018-08-12T03:22:40.126Z,80.90
2018-08-12T03:25:09.825Z,81.80
2018-08-12T03:27:38.374Z,81.80
2018-08-12T03:30:08.064Z,81.90
2018-08-12T03:32:42.842Z,82.40
2018-08-12T03:35:11.402Z,83.00
2018-08-12T03:37:39.990Z,82.90
2018-08-12T03:40:10.891Z,83.20
2018-08-12T03:42:39.497Z,83.20
2018-08-12T03:45:08.792Z,83.90
2018-08-12T03:47:37.418Z,84.30
2018-08-12T03:50:06.743Z,84.30
2018-08-12T03:52:35.379Z,84.30
2018-08-12T03:55:04.803Z,84.90
2018-08-12T03:57:33.499Z,84.80
2018-08-12T04:00:02.130Z,84.80
2018-08-12T04:02:30.677Z,84.60
2018-08-12T04:04:59.258Z,84.90
2018-08-12T04:07:27.845Z,85.30
2018-08-12T04:09:56.410Z,85.70
2018-08-12T04:12:25.001Z,85.10
2018-08-12T04:14:53.574Z,85.10
2018-08-12T04:17:22.170Z,85.50
2018-08-12T04:19:50.713Z,85.50
2018-08-12T04:22:19.306Z,85.50
2018-08-12T04:24:47.842Z,85.50
2018-08-12T04:27:16.382Z,86.30
2018-08-12T04:29:44.959Z,85.50
2018-08-12T04:32:13.527Z,85.50
2018-08-12T04:34:42.067Z,84.60
2018-08-12T04:37:10.698Z,84.60
2018-08-12T04:39:39.358Z,84.50
2018-08-12T04:42:08.018Z,84.20
2018-08-12T04:44:36.639Z,84.20
2018-08-12T04:47:05.220Z,85.20
2018-08-12T04:49:33.791Z,85.50
2018-08-12T04:52:02.388Z,84.80
2018-08-12T04:54:31.035Z,84.50
2018-08-12T04:56:59.646Z,84.30
2018-08-12T04:59:28.216Z,84.60
2018-08-12T05:01:56.785Z,83.50
2018-08-12T05:04:25.450Z,80.30
2018-08-12T05:06:54.063Z,77.80
2018-08-12T05:09:22.649Z,74.90
2018-08-12T05:11:51.213Z,73.60
2018-08-12T05:14:19.845Z,71.90
2018-08-12T05:16:48.419Z,70.00
2018-08-12T05:19:16.987Z,67.80
2018-08-12T05:21:45.643Z,65.70
2018-08-12T05:24:14.219Z,65.60
2018-08-12T05:26:42.783Z,65.10
2018-08-12T05:29:11.450Z,65.00
2018-08-12T05:31:40.136Z,63.80
2018-08-12T05:34:08.759Z,62.00
2018-08-12T05:36:37.365Z,59.80
2018-08-12T05:39:09.156Z,57.80
2018-08-12T05:41:37.807Z,56.20
2018-08-12T05:44:06.643Z,54.80
2018-08-12T05:46:35.223Z,53.50
2018-08-12T05:49:03.886Z,51.90
2018-08-12T05:51:32.480Z,51.40
2018-08-12T05:54:01.099Z,50.60
2018-08-12T05:56:29.742Z,49.30
2018-08-12T05:58:58.362Z,48.00
2018-08-12T06:01:26.941Z,48.30
2018-08-12T06:03:55.566Z,48.40
2018-08-12T06:06:24.112Z,47.60
2018-08-12T06:08:52.742Z,47.30
2018-08-12T06:11:21.433Z,44.80
2018-08-12T06:13:50.033Z,44.00
2018-08-12T06:16:18.690Z,42.40
2018-08-12T06:18:47.230Z,41.60
2018-08-12T06:21:15.871Z,42.00
2018-08-12T06:23:44.409Z,40.20
2018-08-12T06:26:12.935Z,38.10
2018-08-12T06:28:41.566Z,38.00
2018-08-12T06:31:10.178Z,36.90
2018-08-12T06:33:38.766Z,35.60
2018-08-12T06:36:07.347Z,34.40
2018-08-12T06:38:35.980Z,34.10
2018-08-12T06:41:04.529Z,32.60
2018-08-12T06:43:33.140Z,31.80
2018-08-12T06:46:01.696Z,31.50
2018-08-12T06:48:30.340Z,29.90
2018-08-12T06:50:58.931Z,30.30
2018-08-12T06:53:27.526Z,29.50
2018-08-12T06:55:56.198Z,28.70
2018-08-12T06:58:24.783Z,28.00
2018-08-12T07:00:53.407Z,27.70
2018-08-12T07:03:22.034Z,27.50
2018-08-12T07:05:50.560Z,27.40
2018-08-12T07:08:19.172Z,26.70
2018-08-12T07:10:47.779Z,27.50
2018-08-12T07:13:16.344Z,25.60
2018-08-12T07:15:44.931Z,24.70
2018-08-12T07:18:13.565Z,23.80
2018-08-12T07:20:42.102Z,24.00
2018-08-12T07:23:10.750Z,24.30
2018-08-12T07:25:39.334Z,23.10
2018-08-12T07:28:07.955Z,22.80
2018-08-12T07:30:36.578Z,23.30
2018-08-12T07:33:05.189Z,22.20
2018-08-12T07:35:33.793Z,21.20
2018-08-12T07:38:02.418Z,20.60
2018-08-12T07:40:31.033Z,21.20
2018-08-12T07:42:59.674Z,21.40
2018-08-12T07:45:28.246Z,19.00
2018-08-12T07:47:56.905Z,19.60
2018-08-12T07:50:25.477Z,19.40
2018-08-12T07:52:54.110Z,18.60
2018-08-12T07:55:22.753Z,18.60
2018-08-12T07:57:51.335Z,18.40
2018-08-12T08:00:20.687Z,18.20
2018-08-12T08:02:49.374Z,17.50
2018-08-12T08:05:17.982Z,18.20
2018-08-12T08:07:46.544Z,17.00
2018-08-12T08:10:16.387Z,16.90
2018-08-12T08:12:45.189Z,16.40
2018-08-12T08:15:21.325Z,16.60
2018-08-12T08:17:50.091Z,16.60
2018-08-12T08:20:18.741Z,16.20
2018-08-12T08:22:47.432Z,16.00
2018-08-12T08:25:16.142Z,14.90
2018-08-12T08:27:44.798Z,15.30
2018-08-12T08:30:14.853Z,15.90
2018-08-12T08:32:43.616Z,15.20
2018-08-12T08:35:13.039Z,14.50
2018-08-12T08:37:42.146Z,14.30
2018-08-12T08:40:13.352Z,14.50
2018-08-12T08:42:41.954Z,14.60
2018-08-12T08:45:14.129Z,14.00
2018-08-12T08:47:43.777Z,14.90
2018-08-12T08:50:12.316Z,14.80
2018-08-12T08:52:40.892Z,13.90
2018-08-12T08:55:11.056Z,13.50
2018-08-12T08:57:39.621Z,14.00
2018-08-12T09:00:13.739Z,13.60
2018-08-12T09:02:44.023Z,12.80
2018-08-12T09:05:13.881Z,12.80
2018-08-12T09:07:42.722Z,13.40
2018-08-12T09:10:13.235Z,12.90
2018-08-12T09:12:41.829Z,12.80
2018-08-12T09:15:13.627Z,13.70
2018-08-12T09:17:42.920Z,12.30
2018-08-12T09:20:13.090Z,13.20
2018-08-12T09:22:41.949Z,12.20
2018-08-12T09:25:11.419Z,13.60
2018-08-12T09:27:40.130Z,14.80
2018-08-12T09:30:12.582Z,16.40
2018-08-12T09:32:41.598Z,17.40
2018-08-12T09:35:10.260Z,16.80
2018-08-12T09:37:38.930Z,14.60
2018-08-12T09:40:09.659Z,14.70
2018-08-12T09:42:38.300Z,14.00
2018-08-12T09:45:08.907Z,14.00
2018-08-12T09:47:37.555Z,14.40
2018-08-12T09:50:06.613Z,12.80
2018-08-12T09:52:35.481Z,12.50
2018-08-12T09:55:04.641Z,13.20
2018-08-12T09:57:33.295Z,13.60
2018-08-12T10:00:01.924Z,13.10
2018-08-12T10:02:30.493Z,14.00
2018-08-12T10:04:59.454Z,14.10
2018-08-12T10:07:28.003Z,14.80
2018-08-12T10:09:56.584Z,14.60
2018-08-12T10:12:25.194Z,15.10
2018-08-12T10:14:53.791Z,14.30
2018-08-12T10:17:22.494Z,14.70
2018-08-12T10:19:51.160Z,15.40
2018-08-12T10:22:19.804Z,14.70
2018-08-12T10:24:48.348Z,15.30
2018-08-12T10:27:16.920Z,16.70
2018-08-12T10:29:45.532Z,17.30
2018-08-12T10:32:14.096Z,19.00
2018-08-12T10:34:42.726Z,18.30
2018-08-12T10:37:11.308Z,19.00
2018-08-12T10:39:40.002Z,21.20
2018-08-12T10:42:08.551Z,22.20
2018-08-12T10:44:37.098Z,24.30
2018-08-12T10:47:05.799Z,22.50
2018-08-12T10:49:34.417Z,22.80
2018-08-12T10:52:03.059Z,24.50
2018-08-12T10:54:31.680Z,24.10
2018-08-12T10:57:00.367Z,24.30
2018-08-12T10:59:29.028Z,24.60
2018-08-12T11:01:57.666Z,24.60
2018-08-12T11:04:26.337Z,24.10
2018-08-12T11:06:55.043Z,24.50
2018-08-12T11:09:23.679Z,25.50
2018-08-12T11:11:52.347Z,25.20
2018-08-12T11:14:20.929Z,25.30
2018-08-12T11:16:49.466Z,25.40
2018-08-12T11:19:18.123Z,26.30
2018-08-12T11:21:46.692Z,26.20
2018-08-12T11:24:15.303Z,25.90
2018-08-12T11:26:43.923Z,25.90
2018-08-12T11:29:12.522Z,26.00
2018-08-12T11:31:41.103Z,24.90
2018-08-12T11:34:10.160Z,25.30
2018-08-12T11:36:38.738Z,25.00
2018-08-12T11:39:09.314Z,25.00
2018-08-12T11:41:37.937Z,25.40
2018-08-12T11:44:06.627Z,26.30
2018-08-12T11:46:35.209Z,24.50
2018-08-12T11:49:03.913Z,25.80
2018-08-12T11:51:32.775Z,24.00
2018-08-12T11:54:01.358Z,25.40
2018-08-12T11:56:29.975Z,24.20
2018-08-12T11:58:58.516Z,23.10
2018-08-12T12:01:27.134Z,23.20
2018-08-12T12:03:56.544Z,24.00
2018-08-12T12:06:25.127Z,24.30
2018-08-12T12:08:53.735Z,24.50
2018-08-12T12:11:22.299Z,24.20
2018-08-12T12:13:50.901Z,24.90
2018-08-12T12:16:19.455Z,23.20
2018-08-12T12:18:48.047Z,23.40
2018-08-12T12:21:16.633Z,23.70
2018-08-12T12:23:45.187Z,24.20
2018-08-12T12:26:13.749Z,24.30
2018-08-12T12:28:42.323Z,23.40
2018-08-12T12:31:10.952Z,24.50
2018-08-12T12:33:39.541Z,25.50
2018-08-12T12:36:08.270Z,24.30
2018-08-12T12:38:36.851Z,23.50
2018-08-12T12:41:05.442Z,24.20
2018-08-12T12:43:34.039Z,24.00
2018-08-12T12:46:02.660Z,24.10
2018-08-12T12:48:31.530Z,22.60
2018-08-12T12:51:00.142Z,22.60
2018-08-12T12:53:28.760Z,22.80
2018-08-12T12:55:57.338Z,23.80
2018-08-12T12:58:26.021Z,23.70
2018-08-12T13:00:54.655Z,24.40
2018-08-12T13:03:23.239Z,23.60
2018-08-12T13:05:51.892Z,23.60
2018-08-12T13:08:20.516Z,23.50
2018-08-12T13:10:49.113Z,23.00
2018-08-12T13:13:17.734Z,23.90
2018-08-12T13:15:46.333Z,22.70
2018-08-12T13:18:14.942Z,24.00
2018-08-12T13:20:43.508Z,22.50
2018-08-12T13:23:12.196Z,23.30
2018-08-12T13:25:40.788Z,22.60
2018-08-12T13:28:09.382Z,22.50
2018-08-12T13:30:38.047Z,23.30
2018-08-12T13:33:06.739Z,22.10
2018-08-12T13:35:35.271Z,22.40
2018-08-12T13:38:03.885Z,21.40
2018-08-12T13:40:32.505Z,21.70
2018-08-12T13:43:01.107Z,19.50
2018-08-12T13:45:29.751Z,19.30
2018-08-12T13:47:58.417Z,20.10
2018-08-12T13:50:27.011Z,20.20
2018-08-12T13:52:55.598Z,18.80
2018-08-12T13:55:25.100Z,20.20
2018-08-12T13:57:54.218Z,19.20
2018-08-12T14:00:24.170Z,19.20
2018-08-12T14:02:52.831Z,20.90
2018-08-12T14:05:21.762Z,20.80
2018-08-12T14:07:50.977Z,19.70
2018-08-12T14:10:19.591Z,19.90
2018-08-12T14:12:48.286Z,19.00
2018-08-12T14:15:18.985Z,19.80
2018-08-12T14:17:48.583Z,19.90
2018-08-12T14:20:18.449Z,19.90
2018-08-12T14:22:47.082Z,20.00
2018-08-12T14:25:15.771Z,19.60
2018-08-12T14:27:44.865Z,19.50
2018-08-12T14:30:16.450Z,20.00
2018-08-12T14:32:45.717Z,20.60
2018-08-12T14:35:14.365Z,20.30
2018-08-12T14:37:43.011Z,20.80
2018-08-12T14:40:12.589Z,20.80
2018-08-12T14:42:41.188Z,20.60
2018-08-12T14:45:11.994Z,20.80
2018-08-12T14:47:41.102Z,20.80
2018-08-12T14:50:13.490Z,21.70
2018-08-12T14:52:42.386Z,21.00
2018-08-12T14:55:11.694Z,20.90
2018-08-12T14:57:40.908Z,20.90
2018-08-12T15:00:12.193Z,21.20
2018-08-12T15:02:40.837Z,21.00
2018-08-12T15:05:09.467Z,21.60
2018-08-12T15:07:38.336Z,21.40
2018-08-12T15:10:08.609Z,20.70
2018-08-12T15:12:37.206Z,21.20
2018-08-12T15:15:07.161Z,21.00
2018-08-12T15:17:35.734Z,21.70
2018-08-12T15:20:04.759Z,20.80
2018-08-12T15:22:33.443Z,21.20
2018-08-12T15:25:01.895Z,21.20
2018-08-12T15:27:30.496Z,21.70
2018-08-12T15:29:59.076Z,21.80
2018-08-12T15:32:27.682Z,20.80
2018-08-12T15:34:56.267Z,21.40
2018-08-12T15:37:24.864Z,21.30
2018-08-12T15:39:53.458Z,21.30
2018-08-12T15:42:22.122Z,21.40
2018-08-12T15:44:50.610Z,21.20
2018-08-12T15:47:19.226Z,21.60
2018-08-12T15:49:47.823Z,20.90
2018-08-12T15:52:16.422Z,21.10
2018-08-12T15:54:45.027Z,21.10
2018-08-12T15:57:13.652Z,21.40
2018-08-12T15:59:42.253Z,21.80
2018-08-12T16:02:10.816Z,21.30
2018-08-12T16:04:39.415Z,21.90
2018-08-12T16:07:08.974Z,22.10
2018-08-12T16:09:37.791Z,22.00
2018-08-12T16:12:07.906Z,21.80
2018-08-12T16:14:36.825Z,21.70
2018-08-12T16:17:05.725Z,22.20
2018-08-12T16:19:34.390Z,22.20
2018-08-12T16:22:02.928Z,22.40
2018-08-12T16:24:31.546Z,22.20
2018-08-12T16:27:00.154Z,22.70
2018-08-12T16:29:28.786Z,22.50
2018-08-12T16:31:57.456Z,22.60
2018-08-12T16:34:26.076Z,22.40
2018-08-12T16:36:54.699Z,22.60
2018-08-12T16:39:23.241Z,22.70
2018-08-12T16:41:51.737Z,22.90
2018-08-12T16:44:20.349Z,23.00
2018-08-12T16:46:48.903Z,22.90
2018-08-12T16:49:17.644Z,23.30
2018-08-12T16:51:46.254Z,23.40
2018-08-12T16:54:14.858Z,23.50
2018-08-12T16:56:43.494Z,23.70
2018-08-12T16:59:12.099Z,23.80
2018-08-12T17:01:40.675Z,24.30
2018-08-12T17:04:09.339Z,23.80
2018-08-12T17:06:37.942Z,24.30
2018-08-12T17:09:09.078Z,24.20
2018-08-12T17:11:37.694Z,24.10
2018-08-12T17:14:06.892Z,24.60
2018-08-12T17:16:35.609Z,24.50
2018-08-12T17:19:04.312Z,24.30
2018-08-12T17:21:32.928Z,24.70
2018-08-12T17:24:01.516Z,24.90
2018-08-12T17:26:30.149Z,24.50
2018-08-12T17:28:58.769Z,24.70
2018-08-12T17:31:27.370Z,26.70
2018-08-12T17:33:55.981Z,28.00
2018-08-12T17:36:24.589Z,28.00
2018-08-12T17:38:53.352Z,28.50
2018-08-12T17:41:21.855Z,28.90
2018-08-12T17:43:50.502Z,29.10
2018-08-12T17:46:50.058Z,29.50
2018-08-12T17:49:18.676Z,29.90
2018-08-12T17:51:47.262Z,30.00
2018-08-12T17:54:15.849Z,30.00
2018-08-12T17:56:44.486Z,30.20
2018-08-12T17:59:13.058Z,30.90
2018-08-12T18:01:41.856Z,31.70
2018-08-12T18:04:10.436Z,32.10
2018-08-12T18:06:39.041Z,32.40
2018-08-12T18:09:08.535Z,33.20
2018-08-12T18:11:37.105Z,33.50
2018-08-12T18:14:05.726Z,34.10
2018-08-12T18:16:34.296Z,34.50
2018-08-12T18:19:02.852Z,35.10
2018-08-12T18:21:31.442Z,36.20
2018-08-12T18:23:59.993Z,36.00
2018-08-12T18:26:28.607Z,37.10
2018-08-12T18:28:57.162Z,38.00
2018-08-12T18:31:25.857Z,38.30
2018-08-12T18:33:54.484Z,38.40
2018-08-12T18:36:23.039Z,36.80
2018-08-12T18:38:51.736Z,38.20
2018-08-12T18:41:20.338Z,38.50
2018-08-12T18:43:48.978Z,38.70
2018-08-12T18:46:17.668Z,38.90
2018-08-12T18:48:46.311Z,39.70
2018-08-12T18:51:14.842Z,40.30
2018-08-12T18:53:43.466Z,40.50
2018-08-12T18:56:12.062Z,39.90
2018-08-12T19:05:39.274Z,39.70
2018-08-12T19:08:07.848Z,41.60
2018-08-12T19:10:36.435Z,42.90
2018-08-12T19:14:07.754Z,43.20
2018-08-12T19:16:36.342Z,43.30
2018-08-12T19:19:05.221Z,44.20
2018-08-12T19:21:33.802Z,43.10
2018-08-12T19:24:02.416Z,43.30
2018-08-12T19:26:30.974Z,43.30
2018-08-12T19:28:59.677Z,43.10
2018-08-12T19:31:28.203Z,43.30
2018-08-12T19:33:56.724Z,42.80
2018-08-12T19:36:25.295Z,43.30
2018-08-12T19:38:53.835Z,43.10
2018-08-12T19:41:22.492Z,42.50
2018-08-12T19:43:51.086Z,43.00
2018-08-12T19:46:19.693Z,43.00
2018-08-12T19:48:48.304Z,43.70
2018-08-12T19:51:16.952Z,43.90
2018-08-12T19:53:45.570Z,43.70
2018-08-12T19:56:14.132Z,44.20
2018-08-12T19:58:42.743Z,44.90
2018-08-12T20:01:11.314Z,44.00
2018-08-12T20:03:39.914Z,44.70
2018-08-12T20:06:08.462Z,45.40
2018-08-12T20:08:37.042Z,45.10
2018-08-12T20:11:05.626Z,44.70
2018-08-12T20:13:34.225Z,44.80
2018-08-12T20:16:02.820Z,44.90
2018-08-12T20:18:31.469Z,45.50
2018-08-12T20:21:00.037Z,46.50
2018-08-12T20:23:28.606Z,47.10
2018-08-12T20:25:57.215Z,46.30
2018-08-12T20:28:25.747Z,46.00
2018-08-12T20:30:54.314Z,45.80
2018-08-12T20:33:22.874Z,46.10
2018-08-12T20:35:51.446Z,46.30
2018-08-12T20:38:20.083Z,46.90
2018-08-12T20:40:48.676Z,46.50
2018-08-12T20:43:17.309Z,46.70
2018-08-12T20:45:46.790Z,47.40
2018-08-12T20:48:21.875Z,47.80
2018-08-12T20:50:50.457Z,47.40
2018-08-12T20:53:25.991Z,47.50
2018-08-12T20:55:54.566Z,47.40
2018-08-12T20:58:23.124Z,48.10
2018-08-12T21:00:51.670Z,47.80
2018-08-12T21:03:20.201Z,48.10
2018-08-12T21:05:48.757Z,48.80
2018-08-12T21:08:17.310Z,48.90
2018-08-12T21:10:45.946Z,48.60
2018-08-12T21:13:14.507Z,49.50
2018-08-12T21:15:43.081Z,49.70
2018-08-12T21:18:11.690Z,49.70
2018-08-12T21:20:40.250Z,49.60
2018-08-12T21:23:08.854Z,49.90
2018-08-12T21:25:37.510Z,50.40
2018-08-12T21:28:06.418Z,50.60
2018-08-12T21:30:35.033Z,50.40
2018-08-12T21:33:03.616Z,51.10
2018-08-12T21:35:32.278Z,51.50
2018-08-12T21:38:00.862Z,51.30
2018-08-12T21:40:29.478Z,50.80
2018-08-12T21:42:58.057Z,51.00
2018-08-12T21:45:26.639Z,51.80
2018-08-12T21:47:55.359Z,51.70
2018-08-12T21:50:23.938Z,51.80
2018-08-12T21:52:52.510Z,51.90
2018-08-12T21:55:21.086Z,52.00
2018-08-12T21:57:49.683Z,52.10
2018-08-12T22:00:18.243Z,52.40
2018-08-12T22:02:46.871Z,53.00
2018-08-12T22:05:15.518Z,52.60
2018-08-12T22:07:44.067Z,52.80
2018-08-12T22:10:12.643Z,52.90
2018-08-12T22:12:41.188Z,53.00
2018-08-12T22:15:09.772Z,53.10
2018-08-12T22:17:38.678Z,53.50
2018-08-12T22:20:07.473Z,53.20
2018-08-12T22:22:36.047Z,53.50
2018-08-12T22:25:04.706Z,54.00
2018-08-12T22:27:33.284Z,52.90
2018-08-12T22:30:01.875Z,52.30
2018-08-12T22:32:30.466Z,52.90
2018-08-12T22:34:59.082Z,53.70
2018-08-12T22:37:27.649Z,53.90
2018-08-12T22:39:56.274Z,54.20
2018-08-12T22:42:24.817Z,54.70
2018-08-12T22:44:53.395Z,54.80
2018-08-12T22:47:21.963Z,54.70
2018-08-12T22:49:50.553Z,55.10
2018-08-12T22:52:19.106Z,55.00
2018-08-12T22:54:47.689Z,54.80
2018-08-12T22:57:16.289Z,54.90
2018-08-12T22:59:44.815Z,54.90
2018-08-12T23:02:13.464Z,55.30
2018-08-12T23:04:42.167Z,55.30
2018-08-12T23:07:10.744Z,55.30
2018-08-12T23:09:39.332Z,55.20
2018-08-12T23:12:07.870Z,55.70
2018-08-12T23:14:36.426Z,55.60
2018-08-12T23:17:05.083Z,55.60
2018-08-12T23:19:33.722Z,56.50
2018-08-12T23:22:02.390Z,56.30
2018-08-12T23:24:30.969Z,56.10
2018-08-12T23:26:59.511Z,56.10
2018-08-12T23:29:28.078Z,55.90
2018-08-12T23:31:56.653Z,55.80
2018-08-12T23:34:25.239Z,55.80
2018-08-12T23:36:53.828Z,55.90
2018-08-12T23:39:22.402Z,56.10
2018-08-12T23:41:50.990Z,56.40
2018-08-12T23:44:19.542Z,56.40
2018-08-12T23:46:48.079Z,56.60
2018-08-12T23:49:16.666Z,56.60
2018-08-12T23:51:45.198Z,57.00
2018-08-12T23:54:13.797Z,57.50
2018-08-12T23:56:42.367Z,57.80
2018-08-12T23:59:10.995Z,58.30
